메인 페이지
METAR-TAF:

METAR-TAF

공항 :

Camarillo Airport

카마릴로, 캘리포니아, 미국

위도: 34-13N, 경도: 119-05W, 고도: 23m

현재 날씨관측

예보는 1 시간 7분 전, 14:55시(UTC)에 발표되었습니다.
무풍
온도 19°C
습도 68%
기압 1010 hPa
시정: 11.3km
맑음

METAR: KCMA 201455Z 00000KT 7SM CLR 19/13 A2982 RMK AO2 SLP107 T01940133 52010

시각: 09:02 (16:02 UTC)

예보

예보는 4 시간 28분 전, 11:34시(UTC)에 발표되었습니다.
예보 대상 시간: 20일 12시부터 21일 12시까지 (UTC)
여러 방향의 바람 3kt
시정: 10km
맑음
20일 1700시부터 (UTC)
서남서5kt
시정: 10km
맑음
20일 2000시부터 (UTC)
서남서10kt
시정: 10km
맑음
21일 0300시부터 (UTC)
여러 방향의 바람 3kt
시정: 10km
맑음

TAF: KCMA 201134Z 2012/2112 VRB03KT P6SM SKC FM201700 24005KT P6SM SKC FM202000 24010KT P6SM SKC FM210300 VRB03KT P6SM SKC

4,000개 이상의 공항 관측 자료 및 예보 (METAR 및 TAF 보고).

지도상에서 검색 가능한 기상관측소가 노란 점과 빨간 점으로 표시되어 있습니다.

기상관측소 명을 보려면 표시 위로 마우스를 이동하세요.

날씨 관측과 예보를 보려면 클릭하세요.

지도 변경 : 확대하려면 엑스 표시가 있는 녹색 버튼, 축소하려면 빼기 표시가 있는 녹색 버튼, 다음 페이지의 지도를 보려면 녹색 화살표를 클릭하세요.


METAR-TAF: